Half Day, Illinois
Current Conditions -  °F | °C
As of 5:52 AM on Sunday 23 Nov 2014 (Local Time) from KPWK Reporting Station
Broken Clouds Broken Clouds  
Wind Chill: 44°   Ceiling: 5500
Heat Index: 48°   Visibility: 10mi
Dew Point: 43°   Wind: 9mph
Humidity: 83%   Direction: 180°S
Pressure: 29.76"   Gusts: NA
Location:  42.1941°N, 87.9317°W
Report Text: KPWK 231152Z AUTO 18008KT 10SM BKN055 09/06 A2976 RMK AO2 SLP078 T00890061 10111 20089 58007
Loading
Personal Weather Stations






























Interactive Weather Map New forecast layout! Learn more

10-Day Weather Forecast

Advertisements
Track Severe Weather on mobile